PWSweather.com
Personal Weather Stations
Station Observations
MUTNCOVE
Mouton Cove, Abbeville, LA 70510

Mouton CoveAbbeville, LA 70510

Lat: 29.875016, Lon: -92.218675

Elevation: 32

Station Type: Acurite 5-in-1

http://www.moutoncoveweather.com/

Latest ConditionsUpdated 4:00:01 PM CST Saturday, Feb 23, 2019
Currently Today's Max Today's Min Today's Average
Temperature 73.2°F22.9°C 77.5°F25.3°C 69.4°F20.8°C 72.1°F22.3°C
Dew Point 72.9°F22.7°C 76.3°F24.6°C 69.1°F20.6°C 71.8°F22.1°C
Winds 13.8 mph SSW22.2 kmh SSW 15.0 mph -24.1 kmh - - 6.4 mph 10.3 kmh
Wind Gusts 16.1 mph25.9 kmh 16.1 mph25.9 kmh - -
Humidity 99% 99% 96% 99%
Pressure 29.98 in1015.2 mb 30.06 in1017.9 mb 29.98 in1015.2 mb -
Precipitation - 0.02 in0.5 mm - -
Hour Temp Dew Point Humidity Winds Wind Gusts Pressure Precip Precip Rate Daily Precip Total
04:00 PM 73.2°F22.9°C 72.9°F22.7°C 99% 13.8 mph SSW22.2 kmh SSW 16.1 mph25.9 kmh 29.98 in1015.2 mb - 0.01 in0.3 mm 0.02 in0.5 mm
03:30 PM 72.9°F22.7°C 72.6°F22.6°C 99% 8.1 mph SSW13.0 kmh SSW 12.7 mph20.4 kmh 29.98 in1015.2 mb - 0.01 in0.3 mm 0.02 in0.5 mm
03:00 PM 73.9°F23.3°C 73.6°F23.1°C 99% 9.2 mph S14.8 kmh S 12.7 mph20.4 kmh 29.98 in1015.2 mb - 0.00 in0.0 mm 0.01 in0.3 mm
02:30 PM 74.1°F23.4°C 73.8°F23.2°C 99% 9.2 mph S14.8 kmh S 13.8 mph22.2 kmh 29.98 in1015.2 mb - 0.00 in0.0 mm 0.01 in0.3 mm
02:00 PM 74.8°F23.8°C 74.5°F23.6°C 99% 6.9 mph SSW11.1 kmh SSW 8.1 mph13.0 kmh 29.99 in1015.6 mb - 0.00 in0.0 mm 0.01 in0.3 mm
01:30 PM 75.4°F24.1°C 75.1°F23.9°C 99% 8.1 mph SSW13.0 kmh SSW 11.5 mph18.5 kmh 30.00 in1015.9 mb - 0.00 in0.0 mm 0.01 in0.3 mm
01:00 PM 75.4°F24.1°C 75.1°F23.9°C 99% 8.1 mph SW13.0 kmh SW 8.1 mph13.0 kmh 30.03 in1016.9 mb - 0.00 in0.0 mm 0.01 in0.3 mm
12:30 PM 76.5°F24.7°C 75.9°F24.4°C 98% 15.0 mph SSW24.1 kmh SSW 15.0 mph24.1 kmh 30.03 in1016.9 mb - 0.00 in0.0 mm 0.01 in0.3 mm
12:00 PM 77.5°F25.3°C 76.3°F24.6°C 96% 8.1 mph SSW13.0 kmh SSW 9.2 mph14.8 kmh 30.04 in1017.3 mb - 0.00 in0.0 mm 0.01 in0.3 mm
11:30 AM 76.8°F24.9°C 76.2°F24.6°C 98% 6.9 mph SSE11.1 kmh SSE 6.9 mph11.1 kmh 30.04 in1017.3 mb - 0.00 in0.0 mm 0.01 in0.3 mm
11:00 AM 76.5°F24.7°C 76.2°F24.6°C 99% 5.8 mph SSE9.3 kmh SSE 8.1 mph13.0 kmh 30.05 in1017.6 mb - 0.00 in0.0 mm 0.01 in0.3 mm
10:30 AM 74.7°F23.7°C 74.4°F23.6°C 99% 5.8 mph S9.3 kmh S 5.8 mph9.3 kmh 30.06 in1017.9 mb - 0.00 in0.0 mm 0.01 in0.3 mm
10:00 AM 74.3°F23.5°C 74.0°F23.3°C 99% 5.8 mph SE9.3 kmh SE 9.2 mph14.8 kmh 30.06 in1017.9 mb - 0.00 in0.0 mm 0.01 in0.3 mm
09:30 AM 73.4°F23.0°C 73.1°F22.8°C 99% 5.8 mph S9.3 kmh S 8.1 mph13.0 kmh 30.05 in1017.6 mb - 0.00 in0.0 mm 0.01 in0.3 mm
09:00 AM 71.4°F21.9°C 71.1°F21.7°C 99% 3.5 mph NE5.6 kmh NE 9.2 mph14.8 kmh 30.05 in1017.6 mb - 0.00 in0.0 mm 0.01 in0.3 mm
08:30 AM 70.9°F21.6°C 70.6°F21.4°C 99% 4.6 mph SE7.4 kmh SE 6.9 mph11.1 kmh 30.05 in1017.6 mb - 0.00 in0.0 mm 0.01 in0.3 mm
08:00 AM 70.2°F21.2°C 69.9°F21.1°C 99% 4.6 mph S7.4 kmh S 4.6 mph7.4 kmh 30.05 in1017.6 mb - 0.00 in0.0 mm 0.01 in0.3 mm
07:30 AM 70.0°F21.1°C 69.7°F20.9°C 99% 3.5 mph S5.6 kmh S 4.6 mph7.4 kmh 30.05 in1017.6 mb - 0.01 in0.3 mm 0.01 in0.3 mm
07:00 AM 70.2°F21.2°C 69.9°F21.1°C 99% 4.6 mph SSE7.4 kmh SSE 4.6 mph7.4 kmh 30.04 in1017.3 mb - 0.01 in0.3 mm 0.01 in0.3 mm
06:30 AM 70.2°F21.2°C 69.9°F21.1°C 99% 5.8 mph SE9.3 kmh SE 6.9 mph11.1 kmh 30.03 in1016.9 mb - 0.00 in0.0 mm 0.00 in0.0 mm
06:00 AM 70.0°F21.1°C 69.7°F20.9°C 99% 5.8 mph SE9.3 kmh SE 6.9 mph11.1 kmh 30.03 in1016.9 mb - 0.00 in0.0 mm 0.00 in0.0 mm
05:30 AM 69.6°F20.9°C 69.3°F20.7°C 99% 4.6 mph SE7.4 kmh SE 8.1 mph13.0 kmh 30.03 in1016.9 mb - 0.00 in0.0 mm 0.00 in0.0 mm
05:00 AM 69.6°F20.9°C 69.3°F20.7°C 99% 6.9 mph E11.1 kmh E 10.4 mph16.7 kmh 30.02 in1016.6 mb - 0.00 in0.0 mm 0.00 in0.0 mm
04:30 AM 69.8°F21.0°C 69.5°F20.8°C 99% 5.8 mph SE9.3 kmh SE 4.6 mph7.4 kmh 30.02 in1016.6 mb - 0.00 in0.0 mm 0.00 in0.0 mm
04:00 AM 70.0°F21.1°C 69.7°F20.9°C 99% 4.6 mph SE7.4 kmh SE 5.8 mph9.3 kmh 30.04 in1017.3 mb - 0.00 in0.0 mm 0.00 in0.0 mm
03:30 AM 69.8°F21.0°C 69.5°F20.8°C 99% 5.8 mph ESE9.3 kmh ESE 5.8 mph9.3 kmh 30.04 in1017.3 mb - 0.00 in0.0 mm 0.00 in0.0 mm
03:00 AM 69.4°F20.8°C 69.1°F20.6°C 99% 4.6 mph SE7.4 kmh SE 4.6 mph7.4 kmh 30.04 in1017.3 mb - 0.00 in0.0 mm 0.00 in0.0 mm
02:30 AM 69.8°F21.0°C 69.5°F20.8°C 99% 4.6 mph ESE7.4 kmh ESE 8.1 mph13.0 kmh 30.04 in1017.3 mb - 0.00 in0.0 mm 0.00 in0.0 mm
02:00 AM 69.8°F21.0°C 69.5°F20.8°C 99% 5.8 mph ESE9.3 kmh ESE 5.8 mph9.3 kmh 30.05 in1017.6 mb - 0.00 in0.0 mm 0.00 in0.0 mm
01:30 AM 70.0°F21.1°C 69.7°F20.9°C 99% 4.6 mph SE7.4 kmh SE 8.1 mph13.0 kmh 30.05 in1017.6 mb - 0.00 in0.0 mm 0.00 in0.0 mm
01:00 AM 70.2°F21.2°C 69.9°F21.1°C 99% 4.6 mph SE7.4 kmh SE 5.8 mph9.3 kmh 30.05 in1017.6 mb - 0.00 in0.0 mm 0.00 in0.0 mm
12:30 AM 70.0°F21.1°C 69.7°F20.9°C 99% 5.8 mph SSE9.3 kmh SSE 6.9 mph11.1 kmh 30.05 in1017.6 mb - 0.00 in0.0 mm 0.00 in0.0 mm
12:00 AM 70.0°F21.1°C 69.7°F20.9°C 99% 4.6 mph SE7.4 kmh SE 6.9 mph11.1 kmh 30.06 in1017.9 mb - 0.00 in0.0 mm 0.00 in0.0 mm